Time;durP1;ratioP1;P1;durP2;ratioP2;P2;SDS_P1;SDS_P2;PMS_P1;PMS_P2;Temp;Humidity;BMP_temperature;BMP_pressure;BME280_temperature;BME280_humidity;BME280_pressure;Samples;Min_cycle;Max_cycle;Signal;HPM_P1;HPM_P2
2023/06/08 00:00:12;;;;;;;;;;;;;;;23.77;34.72;101032.97;5053841;28;20281;-60
2023/06/08 00:02:37;;;;;;;;;;;;;;;23.81;35.04;101023.16;5052851;28;19916;-58
2023/06/08 00:05:03;;;;;;;;;;;;;;;23.84;34.02;101028.09;5053365;28;19919;-59
2023/06/08 00:07:29;;;;;;;;;;;;;;;23.81;34.44;101028.66;5053244;28;19917;-59
2023/06/08 00:09:54;;;;;;;;;;;;;;;23.72;34.50;101028.31;5048856;28;19919;-59
2023/06/08 00:12:20;;;;;;;;;;;;;;;23.70;34.87;101035.97;5073562;28;19916;-59
2023/06/08 00:14:46;;;;;;;;;;;;;;;23.61;34.63;101032.09;5073611;28;19970;-60
2023/06/08 00:17:11;;;;;;;;;;;;;;;23.57;34.54;101040.03;5073617;28;20352;-61
2023/06/08 00:19:36;;;;;;;;;;;;;;;23.55;34.82;101038.63;5073551;28;19920;-61
2023/06/08 00:22:04;;;;;;;;;;;;;;;23.60;34.74;101038.66;5073340;28;19955;-60
2023/06/08 00:24:31;;;;;;;;;;;;;;;23.55;33.95;101044.97;5073303;28;19918;-60
2023/06/08 00:26:56;;;;;;;;;;;;;;;23.49;34.61;101040.53;5073122;28;19920;-59
2023/06/08 00:29:21;;;;;;;;;;;;;;;23.45;34.49;101044.06;5073455;28;19919;-60
2023/06/08 00:31:46;;;;;;;;;;;;;;;23.38;34.53;101047.88;5069241;28;20327;-61
2023/06/08 00:34:12;;;;;;;;;;;;;;;23.40;35.00;101047.59;5052267;28;19912;-59
2023/06/08 00:36:37;;;;;;;;;;;;;;;23.43;34.72;101049.00;5053307;28;19975;-59
2023/06/08 00:39:03;;;;;;;;;;;;;;;23.39;34.85;101048.72;5053102;28;19913;-57
2023/06/08 00:41:28;;;;;;;;;;;;;;;23.32;35.02;101043.44;5053385;28;19947;-59
2023/06/08 00:43:53;;;;;;;;;;;;;;;23.29;34.38;101052.22;5052941;28;19913;-59
2023/06/08 00:46:19;;;;;;;;;;;;;;;23.29;34.04;101049.47;5053204;28;20309;-58
2023/06/08 00:48:45;;;;;;;;;;;;;;;23.27;33.93;101057.13;5053065;28;19917;-59
2023/06/08 00:51:11;;;;;;;;;;;;;;;23.28;34.29;101061.50;5052287;28;20403;-59
2023/06/08 00:53:37;;;;;;;;;;;;;;;23.27;33.52;101070.00;5053019;28;19917;-58
2023/06/08 00:56:03;;;;;;;;;;;;;;;23.24;33.81;101074.09;5052957;28;19990;-60
2023/06/08 00:58:28;;;;;;;;;;;;;;;23.13;33.71;101075.94;5052903;28;19952;-59
2023/06/08 01:00:59;;;;;;;;;;;;;;;23.08;33.67;101078.63;5052133;28;20316;-59
2023/06/08 01:03:25;;;;;;;;;;;;;;;23.00;33.69;101079.09;5052759;28;19913;-58
2023/06/08 01:05:53;;;;;;;;;;;;;;;22.89;34.52;101091.88;5052747;28;20258;-59
2023/06/08 01:08:52;;;;;;;;;;;;;;;22.80;33.64;101083.31;5052447;28;19913;-55
2023/06/08 01:11:28;;;;;;;;;;;;;;;22.74;35.21;101078.88;5018302;28;19916;-58
2023/06/08 01:14:02;;;;;;;;;;;;;;;22.78;34.24;101087.41;5072562;28;20381;-59
2023/06/08 01:16:31;;;;;;;;;;;;;;;22.77;34.63;101085.72;5072524;28;19920;-58
2023/06/08 01:18:59;;;;;;;;;;;;;;;22.65;33.92;101087.81;5072611;28;19927;-59
2023/06/08 01:21:49;;;;;;;;;;;;;;;22.55;34.13;101086.66;5073284;28;20007;-59
2023/06/08 01:24:19;;;;;;;;;;;;;;;22.56;34.55;101091.03;5073784;28;19917;-59
2023/06/08 01:26:49;;;;;;;;;;;;;;;22.50;33.70;101089.31;5073297;28;20288;-59
2023/06/08 01:29:15;;;;;;;;;;;;;;;22.50;34.08;101089.31;5058634;28;19923;-58
2023/06/08 01:31:41;;;;;;;;;;;;;;;22.46;34.58;101092.84;5052588;28;19912;-59
2023/06/08 01:34:07;;;;;;;;;;;;;;;22.45;33.65;101085.72;5052590;28;19917;-59
2023/06/08 01:36:41;;;;;;;;;;;;;;;22.38;33.55;101092.22;5052644;28;19913;-59
2023/06/08 01:39:12;;;;;;;;;;;;;;;22.39;32.99;101090.31;5052392;28;19916;-58
2023/06/08 01:41:39;;;;;;;;;;;;;;;22.36;31.98;101093.53;5052250;28;19917;-59
2023/06/08 01:44:05;;;;;;;;;;;;;;;22.39;31.36;101093.03;5052607;28;20311;-59
2023/06/08 01:46:30;;;;;;;;;;;;;;;22.39;31.06;101099.34;5052387;28;19982;-59
2023/06/08 01:48:58;;;;;;;;;;;;;;;22.35;30.36;101111.06;5052506;28;19920;-59
2023/06/08 01:51:24;;;;;;;;;;;;;;;22.39;30.05;101114.94;5051970;28;20399;-55
2023/06/08 01:53:50;;;;;;;;;;;;;;;22.40;29.97;101106.47;5052193;28;19916;-58
2023/06/08 01:56:15;;;;;;;;;;;;;;;22.43;29.67;101113.31;5051944;28;19913;-59
2023/06/08 01:58:40;;;;;;;;;;;;;;;22.40;29.71;101116.59;5051674;28;19978;-59
2023/06/08 02:01:05;;;;;;;;;;;;;;;22.38;29.28;101118.75;5052705;28;19924;-59
2023/06/08 02:03:31;;;;;;;;;;;;;;;22.36;29.29;101118.19;5055891;28;20357;-59
2023/06/08 02:05:56;;;;;;;;;;;;;;;22.27;28.74;101120.56;5056208;28;19921;-58
2023/06/08 02:08:21;;;;;;;;;;;;;;;22.21;28.92;101121.53;5056185;28;19913;-59
2023/06/08 02:10:46;;;;;;;;;;;;;;;22.22;28.60;101123.19;5076278;28;20337;-60
2023/06/08 02:13:12;;;;;;;;;;;;;;;22.23;28.14;101119.34;5075829;28;19991;-59
2023/06/08 02:15:37;;;;;;;;;;;;;;;22.13;28.03;101128.28;5075722;28;20350;-59
2023/06/08 02:18:03;;;;;;;;;;;;;;;22.10;27.76;101136.16;5075604;28;19912;-59
2023/06/08 02:20:30;;;;;;;;;;;;;;;22.09;27.69;101135.34;5075935;28;19912;-59
2023/06/08 02:22:56;;;;;;;;;;;;;;;22.01;27.66;101127.59;5075496;28;19913;-59
2023/06/08 02:25:21;;;;;;;;;;;;;;;21.96;27.40;101141.19;5063093;28;19916;-59
2023/06/08 02:27:48;;;;;;;;;;;;;;;21.94;27.25;101137.88;5055837;28;19912;-59
2023/06/08 02:30:14;;;;;;;;;;;;;;;22.00;27.17;101142.34;5055513;28;19913;-60
2023/06/08 02:32:41;;;;;;;;;;;;;;;;;;5055484;28;19952;-59
2023/06/08 02:35:07;;;;;;;;;;;;;;;21.94;27.04;101144.19;5055661;28;20024;-56
2023/06/08 02:37:33;;;;;;;;;;;;;;;22.01;27.03;101144.00;5055704;28;20385;-59
2023/06/08 02:40:00;;;;;;;;;;;;;;;21.97;26.82;101145.56;5055160;28;20384;-60
2023/06/08 02:42:25;;;;;;;;;;;;;;;21.96;26.76;101149.41;5055193;28;19913;-59
2023/06/08 02:44:51;;;;;;;;;;;;;;;21.96;26.63;101144.75;5055093;28;19919;-60
2023/06/08 02:47:16;;;;;;;;;;;;;;;21.79;26.70;101149.44;5054369;28;19921;-59
2023/06/08 02:49:42;;;;;;;;;;;;;;;21.84;26.62;101158.56;5037310;28;19917;-59
2023/06/08 02:52:07;;;;;;;;;;;;;;;21.84;26.52;101152.22;5055189;28;19913;-57
2023/06/08 02:54:32;;;;;;;;;;;;;;;21.88;26.45;101158.03;5054947;28;20039;-57
2023/06/08 02:56:58;;;;;;;;;;;;;;;21.82;26.33;101165.34;5055016;28;19951;-59
2023/06/08 02:59:23;;;;;;;;;;;;;;;21.91;26.39;101166.56;5054950;28;19920;-56
2023/06/08 03:01:55;;;;;;;;;;;;;;;21.85;26.39;101162.09;5054412;28;20288;-60
2023/06/08 03:04:22;;;;;;;;;;;;;;;21.76;26.35;101161.69;5054903;28;19935;-59
2023/06/08 03:06:53;;;;;;;;;;;;;;;21.79;26.28;101168.59;5055135;28;19917;-59
2023/06/08 03:09:20;;;;;;;;;;;;;;;21.84;26.35;101172.22;5063075;28;19912;-60
2023/06/08 03:11:46;;;;;;;;;;;;;;;21.87;26.18;101164.59;5074951;28;19929;-60
2023/06/08 03:14:11;;;;;;;;;;;;;;;21.86;26.23;101177.44;5074125;28;20323;-60
2023/06/08 03:16:36;;;;;;;;;;;;;;;21.99;26.04;101173.50;5074698;28;20002;-60
2023/06/08 03:19:02;;;;;;;;;;;;;;;21.94;25.91;101176.19;5074623;28;19968;-60
2023/06/08 03:21:28;;;;;;;;;;;;;;;21.80;26.15;101175.69;5063400;28;19917;-60
2023/06/08 03:23:54;;;;;;;;;;;;;;;21.86;26.13;101177.44;5054771;28;19919;-57
2023/06/08 03:26:19;;;;;;;;;;;;;;;21.92;25.96;101176.44;5053443;28;20204;-61
2023/06/08 03:28:45;;;;;;;;;;;;;;;21.92;26.10;101184.63;5054625;28;19913;-62
2023/06/08 03:31:11;;;;;;;;;;;;;;;21.82;25.94;101177.13;5054929;28;19919;-56
2023/06/08 03:33:36;;;;;;;;;;;;;;;21.64;26.18;101183.69;5054494;28;19913;-59
2023/06/08 03:36:01;;;;;;;;;;;;;;;21.57;26.60;101187.66;5054468;28;19920;-59
2023/06/08 03:38:27;;;;;;;;;;;;;;;21.60;26.48;101181.69;5054949;28;19920;-58
2023/06/08 03:40:52;;;;;;;;;;;;;;;21.62;26.43;101185.84;5053096;28;19913;-58
2023/06/08 03:43:17;;;;;;;;;;;;;;;21.67;26.12;101187.81;5054488;28;19912;-59
2023/06/08 03:45:43;;;;;;;;;;;;;;;21.66;26.28;101188.91;5052903;28;19928;-56
2023/06/08 03:48:08;;;;;;;;;;;;;;;21.66;26.35;101199.84;5054526;28;19924;-57
2023/06/08 03:50:33;;;;;;;;;;;;;;;21.63;26.33;101195.69;5054414;28;19924;-58
2023/06/08 03:52:59;;;;;;;;;;;;;;;21.66;26.10;101194.38;5053839;28;20298;-58
2023/06/08 03:55:26;;;;;;;;;;;;;;;21.77;26.18;101204.38;5054160;28;19919;-59
2023/06/08 03:57:52;;;;;;;;;;;;;;;21.81;25.92;101204.72;5053877;28;19925;-59
2023/06/08 04:00:17;;;;;;;;;;;;;;;21.79;25.85;101215.88;5054244;28;19958;-59
2023/06/08 04:02:42;;;;;;;;;;;;;;;21.73;26.14;101208.69;5053402;28;19916;-59
2023/06/08 04:05:08;;;;;;;;;;;;;;;21.76;25.95;101207.34;5035845;28;19921;-59
2023/06/08 04:07:34;;;;;;;;;;;;;;;21.75;26.02;101212.00;5053941;28;19924;-59
2023/06/08 04:10:03;;;;;;;;;;;;;;;21.72;26.05;101217.16;5067640;28;19919;-59
2023/06/08 04:12:29;;;;;;;;;;;;;;;21.69;26.15;101221.19;5073507;28;19913;-59
2023/06/08 04:14:54;;;;;;;;;;;;;;;21.73;25.99;101226.97;5073581;28;19920;-59
2023/06/08 04:17:20;;;;;;;;;;;;;;;21.82;25.89;101215.41;5065361;28;19917;-59
2023/06/08 04:19:45;;;;;;;;;;;;;;;21.72;25.98;101217.97;5053512;28;20263;-60
2023/06/08 04:22:10;;;;;;;;;;;;;;;21.62;26.12;101229.56;5053426;28;20015;-59
2023/06/08 04:24:38;;;;;;;;;;;;;;;21.60;25.94;101231.72;5053141;28;19924;-61
2023/06/08 04:27:05;;;;;;;;;;;;;;;21.65;26.07;101222.78;5053522;28;19923;-60
2023/06/08 04:29:31;;;;;;;;;;;;;;;21.67;25.98;101231.53;5053536;28;20321;-59
2023/06/08 04:31:56;;;;;;;;;;;;;;;21.74;25.84;101231.38;5053384;28;19919;-59
2023/06/08 04:34:21;;;;;;;;;;;;;;;21.78;25.74;101227.06;5053139;28;19959;-60
2023/06/08 04:36:47;;;;;;;;;;;;;;;21.76;25.86;101238.25;5053680;28;19913;-61
2023/06/08 04:39:12;;;;;;;;;;;;;;;21.73;25.96;101232.47;5051508;28;20349;-59
2023/06/08 04:41:38;;;;;;;;;;;;;;;21.80;25.73;101241.31;5052982;28;19913;-59
2023/06/08 04:44:03;;;;;;;;;;;;;;;21.75;25.69;101241.22;5054620;28;19959;-59
2023/06/08 04:46:30;;;;;;;;;;;;;;;21.73;25.77;101235.19;5055215;28;19932;-59
2023/06/08 04:48:56;;;;;;;;;;;;;;;21.78;25.57;101247.03;5054814;28;20240;-59
2023/06/08 04:51:23;;;;;;;;;;;;;;;21.82;25.73;101250.09;5053314;28;20365;-59
2023/06/08 04:53:50;;;;;;;;;;;;;;;21.83;25.42;101252.59;5053329;28;19920;-59
2023/06/08 04:56:18;;;;;;;;;;;;;;;21.82;25.57;101250.09;5052951;28;19935;-59
2023/06/08 04:58:45;;;;;;;;;;;;;;;21.82;25.45;101261.88;5052997;28;19928;-56
2023/06/08 05:01:10;;;;;;;;;;;;;;;21.91;25.34;101250.50;5052325;28;19945;-58
2023/06/08 05:03:35;;;;;;;;;;;;;;;21.89;25.49;101258.16;5052786;28;20417;-59
2023/06/08 05:06:00;;;;;;;;;;;;;;;21.91;25.43;101265.00;5052823;28;19917;-57
2023/06/08 05:08:26;;;;;;;;;;;;;;;21.94;25.48;101263.69;5053567;28;19952;-58
2023/06/08 05:10:51;;;;;;;;;;;;;;;21.94;25.52;101258.22;5072843;28;19916;-58
2023/06/08 05:13:16;;;;;;;;;;;;;;;21.98;25.21;101260.19;5066669;28;20296;-59
2023/06/08 05:15:42;;;;;;;;;;;;;;;21.99;25.30;101266.50;5051330;28;19917;-58
2023/06/08 05:18:07;;;;;;;;;;;;;;;21.87;25.36;101263.03;5052920;28;19936;-58
2023/06/08 05:20:32;;;;;;;;;;;;;;;21.98;25.21;101267.59;5052906;28;20591;-59
2023/06/08 05:22:58;;;;;;;;;;;;;;;22.09;24.99;101268.56;5052496;28;19920;-58
2023/06/08 05:25:23;;;;;;;;;;;;;;;;;;5052741;28;19913;-59
2023/06/08 05:27:48;;;;;;;;;;;;;;;21.96;25.24;101267.00;5052924;28;19995;-58
2023/06/08 05:30:14;;;;;;;;;;;;;;;21.88;25.13;101272.88;5052450;28;20410;-59
2023/06/08 05:32:39;;;;;;;;;;;;;;;21.86;25.31;101273.16;5050530;28;19920;-60
2023/06/08 05:35:05;;;;;;;;;;;;;;;21.94;25.25;101278.19;5052172;28;19916;-58
2023/06/08 05:37:30;;;;;;;;;;;;;;;22.11;24.75;101289.13;5055387;28;19912;-58
2023/06/08 05:39:56;;;;;;;;;;;;;;;21.95;25.14;101288.06;5056482;28;20007;-58
2023/06/08 05:42:21;;;;;;;;;;;;;;;22.01;25.03;101291.72;5056767;28;19913;-59
2023/06/08 05:44:46;;;;;;;;;;;;;;;21.95;25.14;101285.34;5056374;28;19970;-59
2023/06/08 05:47:12;;;;;;;;;;;;;;;21.96;25.22;101297.91;5056474;28;19921;-57
2023/06/08 05:49:37;;;;;;;;;;;;;;;22.19;24.78;101299.66;5056439;28;19913;-58
2023/06/08 05:52:02;;;;;;;;;;;;;;;22.38;24.56;101293.91;5056478;28;20024;-59
2023/06/08 05:54:28;;;;;;;;;;;;;;;22.40;24.50;101294.50;5056416;28;19944;-59
2023/06/08 05:56:53;;;;;;;;;;;;;;;22.48;24.47;101302.28;5056116;28;19913;-59
2023/06/08 05:59:18;;;;;;;;;;;;;;;22.49;24.37;101293.00;5055852;28;20015;-59
2023/06/08 06:01:43;;;;;;;;;;;;;;;22.48;24.17;101295.97;5055549;28;19913;-59
2023/06/08 06:04:09;;;;;;;;;;;;;;;22.47;24.31;101288.81;5055951;28;19999;-58
2023/06/08 06:06:35;;;;;;;;;;;;;;;22.45;24.49;101308.22;5056057;28;19920;-59
2023/06/08 06:09:01;;;;;;;;;;;;;;;22.50;24.07;101305.56;5060116;28;19916;-60
2023/06/08 06:11:26;;;;;;;;;;;;;;;22.46;24.42;101303.63;5055671;28;20011;-62
2023/06/08 06:13:51;;;;;;;;;;;;;;;22.51;24.07;101307.25;5055875;28;19920;-60
2023/06/08 06:16:17;;;;;;;;;;;;;;;22.43;24.49;101307.66;5055692;28;20088;-59
2023/06/08 06:18:46;;;;;;;;;;;;;;;22.49;24.33;101298.47;5054236;28;20429;-59
2023/06/08 06:21:12;;;;;;;;;;;;;;;22.58;24.23;101304.31;5055465;28;20436;-60
2023/06/08 06:23:37;;;;;;;;;;;;;;;22.46;24.23;101309.09;5055217;28;19913;-60
2023/06/08 06:26:03;;;;;;;;;;;;;;;22.55;24.04;101307.56;5054157;28;20046;-60
2023/06/08 06:28:29;;;;;;;;;;;;;;;22.63;23.67;101314.50;5055464;28;19917;-60
2023/06/08 06:30:54;;;;;;;;;;;;;;;22.67;23.92;101310.19;5054336;28;19920;-60
2023/06/08 06:33:20;;;;;;;;;;;;;;;22.61;23.87;101304.63;5055416;28;19912;-60
2023/06/08 06:35:45;;;;;;;;;;;;;;;22.63;23.97;101315.34;5055408;28;19913;-59
2023/06/08 06:38:11;;;;;;;;;;;;;;;22.61;23.91;101317.50;5055343;28;20354;-60
2023/06/08 06:40:36;;;;;;;;;;;;;;;22.46;24.00;101311.81;5055482;28;20004;-57
2023/06/08 06:43:01;;;;;;;;;;;;;;;22.46;24.20;101309.91;5055320;28;19935;-59
2023/06/08 06:45:27;;;;;;;;;;;;;;;22.48;23.98;101313.22;5055285;28;20016;-59
2023/06/08 06:47:52;;;;;;;;;;;;;;;22.65;23.99;101318.66;5054015;28;19913;-59
2023/06/08 06:50:17;;;;;;;;;;;;;;;22.65;23.74;101315.91;5055302;28;20003;-59
2023/06/08 06:52:43;;;;;;;;;;;;;;;22.76;23.81;101320.44;5055429;28;20285;-58
2023/06/08 06:55:08;;;;;;;;;;;;;;;22.78;24.00;101329.22;5037270;28;19936;-60
2023/06/08 06:57:34;;;;;;;;;;;;;;;22.83;23.59;101317.50;5054850;28;19913;-58
2023/06/08 07:00:00;;;;;;;;;;;;;;;22.90;23.44;101323.63;5054558;28;19920;-63
2023/06/08 07:02:28;;;;;;;;;;;;;;;22.98;23.61;101320.44;5053284;28;20012;-64
2023/06/08 07:04:55;;;;;;;;;;;;;;;23.07;23.49;101326.31;5054663;28;19944;-65
2023/06/08 07:07:20;;;;;;;;;;;;;;;23.02;23.41;101320.75;5054743;28;19930;-63
2023/06/08 07:09:45;;;;;;;;;;;;;;;23.05;23.20;101320.28;5066996;28;19916;-63
2023/06/08 07:12:11;;;;;;;;;;;;;;;23.03;23.37;101324.31;5074781;28;19913;-63
2023/06/08 07:14:36;;;;;;;;;;;;;;;23.16;23.36;101329.41;5074970;28;19924;-63
2023/06/08 07:17:01;;;;;;;;;;;;;;;23.19;23.51;101335.22;5074596;28;20380;-63
2023/06/08 07:19:26;;;;;;;;;;;;;;;23.30;23.01;101332.59;5074754;28;19995;-63
2023/06/08 07:21:52;;;;;;;;;;;;;;;23.37;22.85;101331.31;5075042;28;19958;-62
2023/06/08 07:24:18;;;;;;;;;;;;;;;23.32;22.90;101338.66;5074693;28;20346;-63
2023/06/08 07:26:45;;;;;;;;;;;;;;;23.32;23.00;101338.66;5074709;28;20266;-63
2023/06/08 07:29:11;;;;;;;;;;;;;;;23.23;23.40;101330.06;5059699;28;19913;-62
2023/06/08 07:31:39;;;;;;;;;;;;;;;23.36;22.99;101339.78;5054113;28;19936;-62
2023/06/08 07:34:06;;;;;;;;;;;;;;;23.38;23.02;101337.59;5054201;28;19913;-61
2023/06/08 07:36:32;;;;;;;;;;;;;;;23.45;23.10;101338.25;5036178;28;20003;-65
2023/06/08 07:38:57;;;;;;;;;;;;;;;23.28;23.27;101352.03;5054215;28;20004;-65
2023/06/08 07:41:24;;;;;;;;;;;;;;;23.41;22.96;101350.81;5054110;28;19940;-65
2023/06/08 07:43:49;;;;;;;;;;;;;;;23.37;23.06;101350.50;5054129;28;19945;-65
2023/06/08 07:46:15;;;;;;;;;;;;;;;23.55;22.79;101349.31;5053710;28;19967;-66
2023/06/08 07:48:40;;;;;;;;;;;;;;;23.60;22.99;101345.78;5035893;28;19913;-63
2023/06/08 07:51:05;;;;;;;;;;;;;;;23.61;22.80;101347.47;5054005;28;20091;-63
2023/06/08 07:53:34;;;;;;;;;;;;;;;23.64;22.54;101344.16;5053687;28;19920;-65
2023/06/08 07:56:00;;;;;;;;;;;;;;;23.71;22.71;101341.22;5053815;28;19963;-66
2023/06/08 07:58:26;;;;;;;;;;;;;;;23.82;22.16;101353.16;5052980;28;20370;-67
2023/06/08 08:00:51;;;;;;;;;;;;;;;23.87;22.66;101347.72;5052949;28;19917;-66
2023/06/08 08:03:16;;;;;;;;;;;;;;;23.94;22.19;101354.66;5053547;28;19921;-66
2023/06/08 08:05:42;;;;;;;;;;;;;;;23.98;22.04;101345.88;5049943;28;19921;-58
2023/06/08 08:08:07;;;;;;;;;;;;;;;24.05;21.89;101349.22;5044651;28;19939;-57
2023/06/08 08:10:32;;;;;;;;;;;;;;;23.99;22.13;101342.06;5046883;28;20283;-58
2023/06/08 08:12:57;;;;;;;;;;;;;;;23.96;22.25;101346.16;5039913;28;19917;-58
2023/06/08 08:15:23;;;;;;;;;;;;;;;24.06;21.75;101351.72;5036329;28;19952;-57
2023/06/08 08:17:49;;;;;;;;;;;;;;;24.17;21.84;101347.13;5044544;28;19913;-58
2023/06/08 08:20:14;;;;;;;;;;;;;;;24.14;21.94;101339.41;5035492;28;19919;-58
2023/06/08 08:22:39;;;;;;;;;;;;;;;24.14;21.51;101340.25;5053464;28;19940;-57
2023/06/08 08:25:05;;;;;;;;;;;;;;;24.19;21.82;101349.63;5053300;28;19913;-56
2023/06/08 08:27:31;;;;;;;;;;;;;;;24.31;21.46;101340.09;5052809;28;19917;-55
2023/06/08 08:29:56;;;;;;;;;;;;;;;24.43;21.54;101348.13;5053107;28;19916;-54
2023/06/08 08:32:23;;;;;;;;;;;;;;;24.47;20.96;101338.25;5053130;28;19959;-54
2023/06/08 08:34:50;;;;;;;;;;;;;;;24.52;21.34;101346.56;5053303;28;19987;-56
2023/06/08 08:37:16;;;;;;;;;;;;;;;24.60;21.03;101347.16;5053193;28;20292;-55
2023/06/08 08:39:42;;;;;;;;;;;;;;;24.67;21.36;101339.50;5053082;28;19912;-57
2023/06/08 08:42:10;;;;;;;;;;;;;;;24.72;21.05;101347.75;5053213;28;20364;-56
2023/06/08 08:44:36;;;;;;;;;;;;;;;24.81;20.73;101340.66;5053251;28;19912;-54
2023/06/08 08:47:04;;;;;;;;;;;;;;;24.77;20.64;101341.47;5053760;28;20285;-58
2023/06/08 08:49:36;;;;;;;;;;;;;;;24.90;20.83;101341.81;5053027;28;20291;-57
2023/06/08 08:52:01;;;;;;;;;;;;;;;25.05;20.80;101338.28;5052832;28;19932;-58
2023/06/08 08:54:33;;;;;;;;;;;;;;;25.09;20.67;101344.06;5052807;28;19928;-58
2023/06/08 08:56:59;;;;;;;;;;;;;;;25.05;20.44;101332.78;5052790;28;19962;-58
2023/06/08 08:59:27;;;;;;;;;;;;;;;25.12;20.76;101338.03;5052341;28;19992;-65
2023/06/08 09:01:52;;;;;;;;;;;;;;;25.23;20.61;101330.66;5050985;28;19924;-59
2023/06/08 09:04:17;;;;;;;;;;;;;;;25.30;20.49;101331.25;5051228;28;19995;-56
2023/06/08 09:06:49;;;;;;;;;;;;;;;25.29;20.47;101326.84;5051606;28;19917;-57
2023/06/08 09:09:15;;;;;;;;;;;;;;;25.33;20.37;101335.38;5059302;28;19912;-58
2023/06/08 09:11:55;;;;;;;;;;;;;;;25.43;20.50;101338.16;5070229;28;19939;-54
2023/06/08 09:14:20;;;;;;;;;;;;;;;25.53;20.10;101331.84;5070434;28;19966;-57
2023/06/08 09:16:45;;;;;;;;;;;;;;;25.58;19.98;101329.94;5070548;28;20544;-57
2023/06/08 09:19:11;;;;;;;;;;;;;;;25.63;19.99;101337.34;5070971;28;19919;-58
2023/06/08 09:21:36;;;;;;;;;;;;;;;25.62;19.58;101338.47;5057505;28;19918;-56
2023/06/08 09:24:11;;;;;;;;;;;;;;;25.70;19.69;101329.66;5051458;28;20281;-57
2023/06/08 09:26:47;;;;;;;;;;;;;;;25.83;19.98;101329.09;5050950;28;19921;-56
2023/06/08 09:29:31;;;;;;;;;;;;;;;25.91;19.82;101330.50;5052255;28;19913;-57
2023/06/08 09:31:56;;;;;;;;;;;;;;;26.00;19.65;101326.13;5052448;28;19921;-54
2023/06/08 09:34:22;;;;;;;;;;;;;;;26.15;19.39;101324.44;5052291;28;19977;-59
2023/06/08 09:36:48;;;;;;;;;;;;;;;26.18;18.95;101340.41;5052534;28;19913;-57
2023/06/08 09:39:13;;;;;;;;;;;;;;;26.27;19.35;101333.25;5052285;28;19920;-56
2023/06/08 09:41:39;;;;;;;;;;;;;;;26.34;18.79;101324.69;5052454;28;20277;-51
2023/06/08 09:44:18;;;;;;;;;;;;;;;26.37;19.11;101338.72;5052723;28;19916;-53
2023/06/08 09:46:46;;;;;;;;;;;;;;;26.55;18.48;101328.22;5052281;28;19916;-54
2023/06/08 09:49:13;;;;;;;;;;;;;;;26.67;18.76;101328.78;5052445;28;19921;-54
2023/06/08 09:51:41;;;;;;;;;;;;;;;26.73;18.63;101324.06;5052158;28;19952;-56
2023/06/08 09:54:07;;;;;;;;;;;;;;;26.93;18.72;101325.88;5052160;28;20010;-56
2023/06/08 09:56:32;;;;;;;;;;;;;;;26.88;18.54;101326.75;5051996;28;19912;-57
2023/06/08 09:59:01;;;;;;;;;;;;;;;26.95;18.32;101329.19;5050509;28;19928;-52
2023/06/08 10:01:40;;;;;;;;;;;;;;;27.07;18.52;101326.13;5050607;28;19916;-57
2023/06/08 10:04:14;;;;;;;;;;;;;;;27.22;18.49;101328.78;5052127;28;19962;-58
2023/06/08 10:06:40;;;;;;;;;;;;;;;27.32;18.42;101323.25;5052235;28;19992;-56
2023/06/08 10:09:08;;;;;;;;;;;;;;;27.61;18.27;101319.72;5058861;28;19925;-57
2023/06/08 10:11:34;;;;;;;;;;;;;;;27.72;18.13;101328.75;5072304;28;19919;-56
2023/06/08 10:13:59;;;;;;;;;;;;;;;27.93;17.36;101321.94;5054002;28;20011;-56
2023/06/08 10:16:25;;;;;;;;;;;;;;;28.00;17.44;101316.09;5070356;28;19959;-55
2023/06/08 10:18:51;;;;;;;;;;;;;;;28.13;17.11;101309.91;5051977;28;19963;-57
2023/06/08 10:21:16;;;;;;;;;;;;;;;28.32;17.39;101315.50;5051944;28;19913;-57
2023/06/08 10:23:42;;;;;;;;;;;;;;;28.47;16.83;101313.69;5055924;28;19923;-57
2023/06/08 10:26:07;;;;;;;;;;;;;;;28.52;16.90;101306.19;5038021;28;19956;-58
2023/06/08 10:28:32;;;;;;;;;;;;;;;28.69;16.81;101318.72;5055675;28;19973;-58
2023/06/08 10:30:58;;;;;;;;;;;;;;;28.85;16.50;101313.84;5055614;28;19916;-57
2023/06/08 10:33:24;;;;;;;;;;;;;;;29.12;16.27;101318.69;5055641;28;19913;-57
2023/06/08 10:36:08;;;;;;;;;;;;;;;29.37;16.27;101314.78;5055260;28;19913;-57
2023/06/08 10:38:36;;;;;;;;;;;;;;;29.65;16.64;101312.13;5055159;28;19917;-58
2023/06/08 10:41:01;;;;;;;;;;;;;;;29.98;16.44;101320.44;5055037;28;20460;-58
2023/06/08 10:43:27;;;;;;;;;;;;;;;29.88;16.17;101315.91;5055048;28;19924;-58
2023/06/08 10:45:53;;;;;;;;;;;;;;;30.03;15.67;101312.06;5054937;28;19913;-56
2023/06/08 10:48:19;;;;;;;;;;;;;;;30.37;15.66;101306.19;5054965;28;19920;-54
2023/06/08 10:50:51;;;;;;;;;;;;;;;30.57;15.22;101302.19;5055073;28;19917;-57
2023/06/08 10:53:20;;;;;;;;;;;;;;;30.70;14.85;101300.50;5054871;28;19912;-58
2023/06/08 10:55:46;;;;;;;;;;;;;;;31.03;15.36;101301.22;5055029;28;19913;-57
2023/06/08 10:58:14;;;;;;;;;;;;;;;31.03;14.67;101298.44;5054381;28;19925;-57
2023/06/08 11:00:43;;;;;;;;;;;;;;;31.30;14.71;101299.50;5054772;28;19919;-56
2023/06/08 11:03:20;;;;;;;;;;;;;;;31.38;14.58;101301.50;5053780;28;19913;-57
2023/06/08 11:05:52;;;;;;;;;;;;;;;31.72;14.58;101302.94;5034639;28;19914;-58
2023/06/08 11:08:18;;;;;;;;;;;;;;;31.98;13.94;101307.81;5034538;28;19924;-56
2023/06/08 11:10:44;;;;;;;;;;;;;;;32.08;14.09;101295.66;5054646;28;19913;-57
2023/06/08 11:13:10;;;;;;;;;;;;;;;32.39;13.86;101302.00;5054532;28;20284;-57
2023/06/08 11:15:37;;;;;;;;;;;;;;;32.74;13.35;101309.66;5054505;28;20435;-57
2023/06/08 11:18:03;;;;;;;;;;;;;;;32.94;13.21;101295.13;5054566;28;19913;-58
2023/06/08 11:20:29;;;;;;;;;;;;;;;33.25;13.35;101296.19;5054263;28;19966;-58
2023/06/08 11:22:55;;;;;;;;;;;;;;;33.31;12.90;101289.28;5054449;28;19913;-58
2023/06/08 11:25:24;;;;;;;;;;;;;;;33.40;12.87;101290.09;5054613;28;20428;-58
2023/06/08 11:27:55;;;;;;;;;;;;;;;33.48;12.65;101294.84;5054197;28;19924;-58
2023/06/08 11:30:22;;;;;;;;;;;;;;;33.92;12.71;101283.66;5054605;28;19974;-56
2023/06/08 11:32:49;;;;;;;;;;;;;;;34.23;12.33;101282.56;5053083;28;19912;-54
2023/06/08 11:35:15;;;;;;;;;;;;;;;34.57;12.66;101283.56;5053836;28;19948;-54
2023/06/08 11:37:43;;;;;;;;;;;;;;;34.79;12.45;101280.47;5054306;28;20377;-57
2023/06/08 11:40:10;;;;;;;;;;;;;;;35.06;12.03;101275.50;5054442;28;20550;-58
2023/06/08 11:42:36;;;;;;;;;;;;;;;35.45;11.66;101278.97;5054059;28;20322;-56
2023/06/08 11:45:03;;;;;;;;;;;;;;;35.67;11.39;101278.56;5054340;28;19913;-58
2023/06/08 11:47:29;;;;;;;;;;;;;;;35.75;12.06;101276.06;5054181;28;19921;-57
2023/06/08 11:49:57;;;;;;;;;;;;;;;36.13;10.89;101277.75;5054007;28;19920;-57
2023/06/08 11:52:23;;;;;;;;;;;;;;;36.14;11.53;101274.59;5053839;28;19948;-57
2023/06/08 11:54:55;;;;;;;;;;;;;;;36.21;11.78;101274.06;5053776;28;19982;-58
2023/06/08 11:57:21;;;;;;;;;;;;;;;36.44;11.76;101268.78;5053520;28;19913;-56
2023/06/08 11:59:47;;;;;;;;;;;;;;;36.60;10.72;101266.91;5053556;28;19932;-56
2023/06/08 12:02:12;;;;;;;;;;;;;;;36.59;11.09;101267.25;5052736;28;20274;-57
2023/06/08 12:04:37;;;;;;;;;;;;;;;36.77;11.12;101262.25;5053747;28;20007;-57
2023/06/08 12:07:12;;;;;;;;;;;;;;;36.59;10.66;101275.66;5053515;28;19963;-58
2023/06/08 12:09:38;;;;;;;;;;;;;;;37.00;10.54;101273.75;5056708;28;19917;-59
2023/06/08 12:12:10;;;;;;;;;;;;;;;37.35;10.74;101270.38;5053351;28;20324;-58
2023/06/08 12:14:36;;;;;;;;;;;;;;;37.67;9.99;101262.88;5052882;28;19917;-58
2023/06/08 12:17:05;;;;;;;;;;;;;;;38.04;10.15;101273.00;5053075;28;19935;-58
2023/06/08 12:19:31;;;;;;;;;;;;;;;38.21;10.30;101267.09;5053034;28;19913;-58
2023/06/08 12:21:57;;;;;;;;;;;;;;;38.67;10.30;101260.94;5053367;28;19917;-59
2023/06/08 12:24:22;;;;;;;;;;;;;;;39.14;8.96;101264.78;5053677;28;20280;-60
2023/06/08 12:26:47;;;;;;;;;;;;;;;39.58;9.23;101268.09;5053245;28;20027;-58
2023/06/08 12:29:14;;;;;;;;;;;;;;;39.85;8.35;101266.13;5053416;28;19912;-58
2023/06/08 12:31:39;;;;;;;;;;;;;;;39.90;8.15;101256.63;5053046;28;19963;-58
2023/06/08 12:34:04;;;;;;;;;;;;;;;40.24;9.09;101262.38;5053200;28;19912;-58